createdAt,value
2022-10-19T00:00:42.947Z,522.00
2022-10-19T00:01:42.957Z,518.00
2022-10-19T00:02:42.964Z,518.00
2022-10-19T00:03:42.911Z,518.00
2022-10-19T00:04:42.969Z,515.00
2022-10-19T00:05:42.853Z,518.00
2022-10-19T00:06:42.958Z,515.00
2022-10-19T00:07:42.826Z,515.00
2022-10-19T00:08:42.999Z,518.00
2022-10-19T00:09:42.802Z,514.00
2022-10-19T00:10:42.867Z,517.00
2022-10-19T00:11:42.785Z,518.00
2022-10-19T00:12:42.876Z,516.00
2022-10-19T00:13:42.748Z,516.00
2022-10-19T00:14:42.838Z,514.00
2022-10-19T00:15:42.729Z,517.00
2022-10-19T00:16:43.898Z,506.00
2022-10-19T00:17:42.687Z,517.00
2022-10-19T00:18:44.767Z,522.00
2022-10-19T00:19:42.659Z,522.00
2022-10-19T00:20:42.678Z,516.00
2022-10-19T00:21:42.681Z,518.00
2022-10-19T00:22:42.739Z,515.00
2022-10-19T00:23:42.609Z,516.00
2022-10-19T00:24:42.709Z,516.00
2022-10-19T00:25:42.590Z,517.00
2022-10-19T00:26:42.621Z,517.00
2022-10-19T00:27:42.557Z,516.00
2022-10-19T00:28:42.771Z,515.00
2022-10-19T00:29:42.537Z,513.00
2022-10-19T00:30:42.591Z,515.00
2022-10-19T00:31:42.499Z,517.00
2022-10-19T00:32:42.568Z,518.00
2022-10-19T00:33:42.468Z,525.00
2022-10-19T00:34:42.529Z,527.00
2022-10-19T00:35:42.448Z,526.00
2022-10-19T00:36:43.599Z,526.00
2022-10-19T00:37:42.420Z,526.00
2022-10-19T00:38:42.518Z,525.00
2022-10-19T00:39:42.429Z,527.00
2022-10-19T00:40:42.499Z,529.00
2022-10-19T00:41:42.369Z,528.00
2022-10-19T00:42:42.489Z,528.00
2022-10-19T00:43:42.361Z,529.00
2022-10-19T00:44:42.420Z,528.00
2022-10-19T00:45:42.317Z,523.00
2022-10-19T00:46:42.570Z,523.00
2022-10-19T00:47:42.289Z,521.00
2022-10-19T00:48:42.406Z,520.00
2022-10-19T00:49:42.260Z,532.00
2022-10-19T00:50:43.349Z,531.00
2022-10-19T00:51:42.239Z,528.00
2022-10-19T00:52:42.427Z,528.00
2022-10-19T00:53:42.209Z,524.00
2022-10-19T00:54:42.320Z,525.00
2022-10-19T00:55:42.179Z,524.00
2022-10-19T00:56:43.359Z,527.00
2022-10-19T00:57:42.206Z,525.00
2022-10-19T00:58:42.219Z,529.00
2022-10-19T00:59:42.129Z,531.00
2022-10-19T01:00:42.231Z,531.00
2022-10-19T01:01:42.105Z,535.00
2022-10-19T01:02:42.261Z,526.00
2022-10-19T01:03:42.073Z,529.00
2022-10-19T01:04:42.322Z,526.00
2022-10-19T01:05:42.049Z,530.00
2022-10-19T01:06:42.159Z,528.00
2022-10-19T01:07:42.021Z,526.00
2022-10-19T01:08:42.142Z,525.00
2022-10-19T01:09:41.990Z,526.00
2022-10-19T01:10:44.181Z,524.00
2022-10-19T01:11:41.991Z,521.00
2022-10-19T01:12:42.113Z,520.00
2022-10-19T01:13:41.940Z,522.00
2022-10-19T01:14:42.051Z,523.00
2022-10-19T01:15:41.956Z,520.00
2022-10-19T01:16:42.042Z,521.00
2022-10-19T01:17:41.892Z,521.00
2022-10-19T01:18:42.941Z,519.00
2022-10-19T01:19:41.861Z,520.00
2022-10-19T01:20:41.892Z,518.00
2022-10-19T01:21:42.144Z,520.00
2022-10-19T01:22:42.043Z,538.00
2022-10-19T01:23:41.792Z,525.00
2022-10-19T01:24:41.881Z,525.00
2022-10-19T01:25:41.780Z,525.00
2022-10-19T01:26:41.905Z,526.00
2022-10-19T01:27:41.753Z,520.00
2022-10-19T01:28:41.902Z,518.00
2022-10-19T01:29:41.723Z,522.00
2022-10-19T01:31:51.618Z,558.00
2022-10-19T01:32:51.511Z,522.00
2022-10-19T01:33:51.652Z,520.00
2022-10-19T01:34:51.502Z,517.00
2022-10-19T01:35:53.687Z,518.00
2022-10-19T01:36:51.458Z,516.00
2022-10-19T01:37:51.627Z,514.00
2022-10-19T01:38:51.427Z,512.00
2022-10-19T01:39:51.506Z,515.00
2022-10-19T01:40:51.408Z,513.00
2022-10-19T01:41:53.494Z,512.00
2022-10-19T01:42:51.422Z,522.00
2022-10-19T01:44:12.507Z,517.00
2022-10-19T01:44:51.370Z,516.00
2022-10-19T01:45:51.518Z,513.00
2022-10-19T01:46:51.315Z,517.00
2022-10-19T01:47:51.508Z,519.00
2022-10-19T01:48:51.289Z,515.00
2022-10-19T01:49:51.337Z,513.00
2022-10-19T01:50:51.263Z,511.00
2022-10-19T01:51:51.463Z,513.00
2022-10-19T01:52:51.237Z,515.00
2022-10-19T01:53:51.308Z,514.00
2022-10-19T01:54:51.208Z,521.00
2022-10-19T01:55:51.350Z,518.00
2022-10-19T01:56:51.196Z,514.00
2022-10-19T01:57:51.228Z,518.00
2022-10-19T01:58:51.156Z,515.00
2022-10-19T01:59:51.212Z,516.00
2022-10-19T02:00:51.311Z,519.00
2022-10-19T02:01:51.252Z,516.00
2022-10-19T02:02:51.097Z,514.00
2022-10-19T02:03:52.268Z,514.00
2022-10-19T02:04:51.086Z,510.00
2022-10-19T02:05:51.219Z,512.00
2022-10-19T02:06:51.040Z,514.00
2022-10-19T02:07:51.156Z,512.00
2022-10-19T02:08:51.019Z,511.00
2022-10-19T02:09:51.190Z,507.00
2022-10-19T02:10:50.996Z,513.00
2022-10-19T02:11:53.361Z,511.00
2022-10-19T02:12:51.960Z,514.00
2022-10-19T02:13:51.058Z,516.00
2022-10-19T02:14:50.942Z,515.00
2022-10-19T02:15:51.151Z,516.00
2022-10-19T02:16:50.909Z,513.00
2022-10-19T02:17:51.029Z,513.00
2022-10-19T02:18:50.882Z,511.00
2022-10-19T02:19:50.971Z,508.00
2022-10-19T02:20:50.850Z,508.00
2022-10-19T02:21:51.981Z,504.00
2022-10-19T02:22:50.836Z,509.00
2022-10-19T02:23:53.383Z,510.00
2022-10-19T02:24:50.803Z,510.00
2022-10-19T02:25:52.862Z,512.00
2022-10-19T02:26:50.774Z,510.00
2022-10-19T02:27:50.865Z,511.00
2022-10-19T02:28:50.758Z,512.00
2022-10-19T02:29:50.849Z,508.00
2022-10-19T02:30:50.711Z,511.00
2022-10-19T02:31:50.880Z,515.00
2022-10-19T02:32:50.680Z,505.00
2022-10-19T02:33:54.041Z,512.00
2022-10-19T02:34:50.653Z,510.00
2022-10-19T02:35:50.748Z,511.00
2022-10-19T02:36:50.623Z,508.00
2022-10-19T02:37:50.681Z,521.00
2022-10-19T02:38:50.601Z,513.00
2022-10-19T02:39:51.692Z,513.00
2022-10-19T02:40:50.571Z,517.00
2022-10-19T02:41:50.761Z,515.00
2022-10-19T02:42:50.544Z,513.00
2022-10-19T02:43:50.693Z,517.00
2022-10-19T02:44:50.522Z,510.00
2022-10-19T02:45:50.655Z,512.00
2022-10-19T02:46:50.502Z,503.00
2022-10-19T02:47:50.509Z,505.00
2022-10-19T02:48:50.463Z,505.00
2022-10-19T02:49:50.522Z,507.00
2022-10-19T02:50:50.432Z,508.00
2022-10-19T02:51:50.491Z,507.00
2022-10-19T02:52:50.412Z,505.00
2022-10-19T02:53:50.463Z,506.00
2022-10-19T02:54:50.381Z,507.00
2022-10-19T02:55:50.506Z,507.00
2022-10-19T02:56:50.367Z,508.00
2022-10-19T02:57:50.432Z,512.00
2022-10-19T02:58:50.377Z,510.00
2022-10-19T02:59:50.395Z,508.00
2022-10-19T03:00:50.321Z,506.00
2022-10-19T03:01:50.302Z,506.00
2022-10-19T03:02:50.274Z,508.00
2022-10-19T03:03:50.364Z,508.00
2022-10-19T03:04:50.246Z,507.00
2022-10-19T03:05:51.306Z,507.00
2022-10-19T03:06:50.214Z,511.00
2022-10-19T03:07:50.315Z,511.00
2022-10-19T03:08:50.195Z,509.00
2022-10-19T03:09:50.203Z,508.00
2022-10-19T03:10:50.163Z,511.00
2022-10-19T03:11:50.172Z,511.00
2022-10-19T03:12:50.144Z,514.00
2022-10-19T03:13:50.188Z,516.00
2022-10-19T03:14:50.111Z,514.00
2022-10-19T03:15:50.204Z,514.00
2022-10-19T03:16:50.074Z,512.00
2022-10-19T03:17:50.195Z,511.00
2022-10-19T03:18:50.053Z,518.00
2022-10-19T03:19:50.232Z,515.00
2022-10-19T03:20:50.029Z,513.00
2022-10-19T03:21:50.113Z,516.00
2022-10-19T03:22:50.057Z,512.00
2022-10-19T03:23:50.067Z,513.00
2022-10-19T03:24:49.974Z,511.00
2022-10-19T03:25:50.072Z,515.00
2022-10-19T03:26:49.946Z,514.00
2022-10-19T03:27:50.116Z,511.00
2022-10-19T03:28:49.948Z,508.00
2022-10-19T03:29:50.106Z,510.00
2022-10-19T03:30:49.899Z,513.00
2022-10-19T03:31:49.935Z,514.00
2022-10-19T03:32:49.866Z,516.00
2022-10-19T03:33:50.028Z,517.00
2022-10-19T03:34:49.844Z,516.00
2022-10-19T03:35:50.005Z,516.00
2022-10-19T03:36:49.814Z,516.00
2022-10-19T03:37:49.955Z,519.00
2022-10-19T03:38:49.790Z,517.00
2022-10-19T03:39:49.827Z,515.00
2022-10-19T03:40:49.766Z,521.00
2022-10-19T03:41:51.913Z,517.00
2022-10-19T03:42:49.922Z,516.00
2022-10-19T03:43:49.894Z,517.00
2022-10-19T03:44:49.717Z,517.00
2022-10-19T03:45:49.835Z,515.00
2022-10-19T03:46:49.683Z,517.00
2022-10-19T03:47:49.716Z,514.00
2022-10-19T03:48:49.652Z,515.00
2022-10-19T03:49:49.748Z,514.00
2022-10-19T03:50:49.624Z,514.00
2022-10-19T03:51:49.746Z,517.00
2022-10-19T03:52:49.696Z,516.00
2022-10-19T03:53:50.754Z,517.00
2022-10-19T03:54:49.789Z,518.00
2022-10-19T03:55:49.768Z,519.00
2022-10-19T03:56:49.557Z,514.00
2022-10-19T03:57:49.658Z,514.00
2022-10-19T03:58:49.517Z,514.00
2022-10-19T04:00:10.591Z,517.00
2022-10-19T04:00:49.527Z,518.00
2022-10-19T04:01:49.566Z,517.00
2022-10-19T04:02:49.468Z,518.00
2022-10-19T04:03:49.668Z,515.00
2022-10-19T04:04:49.446Z,517.00
2022-10-19T04:06:10.616Z,514.00
2022-10-19T04:06:49.421Z,515.00
2022-10-19T04:07:49.467Z,515.00
2022-10-19T04:08:49.388Z,516.00
2022-10-19T04:09:52.762Z,517.00
2022-10-19T04:10:49.367Z,519.00
2022-10-19T04:11:49.439Z,519.00
2022-10-19T04:12:53.650Z,517.00
2022-10-19T04:13:49.328Z,516.00
2022-10-19T04:14:57.798Z,515.00
2022-10-19T04:15:50.317Z,516.00
2022-10-19T04:16:49.378Z,515.00
2022-10-19T04:17:49.275Z,517.00
2022-10-19T04:19:10.329Z,515.00
2022-10-19T04:19:49.247Z,515.00
2022-10-19T04:20:49.348Z,515.00
2022-10-19T04:21:49.247Z,516.00
2022-10-19T04:22:50.308Z,514.00
2022-10-19T04:23:49.188Z,514.00
2022-10-19T04:24:49.330Z,516.00
2022-10-19T04:25:49.173Z,514.00
2022-10-19T04:26:49.262Z,514.00
2022-10-19T04:27:49.157Z,512.00
2022-10-19T04:28:49.247Z,515.00
2022-10-19T04:29:49.110Z,513.00
2022-10-19T04:30:49.238Z,515.00
2022-10-19T04:31:49.089Z,514.00
2022-10-19T04:33:10.199Z,511.00
2022-10-19T04:33:49.067Z,511.00
2022-10-19T04:34:50.219Z,513.00
2022-10-19T04:35:49.029Z,511.00
2022-10-19T04:36:49.130Z,513.00
2022-10-19T04:37:48.999Z,512.00
2022-10-19T04:38:49.119Z,513.00
2022-10-19T04:39:48.988Z,513.00
2022-10-19T04:40:49.078Z,515.00
2022-10-19T04:41:48.947Z,514.00
2022-10-19T04:42:48.992Z,513.00
2022-10-19T04:43:48.940Z,513.00
2022-10-19T04:44:49.199Z,514.00
2022-10-19T04:45:48.908Z,514.00
2022-10-19T04:46:49.009Z,514.00
2022-10-19T04:47:48.878Z,514.00
2022-10-19T04:48:50.072Z,519.00
2022-10-19T04:49:48.850Z,517.00
2022-10-19T04:50:48.907Z,513.00
2022-10-19T04:51:48.828Z,515.00
2022-10-19T04:52:48.872Z,514.00
2022-10-19T04:53:48.800Z,516.00
2022-10-19T04:54:48.880Z,514.00
2022-10-19T04:55:48.780Z,513.00
2022-10-19T04:56:48.857Z,515.00
2022-10-19T04:57:48.763Z,516.00
2022-10-19T04:58:48.821Z,514.00
2022-10-19T04:59:48.719Z,510.00
2022-10-19T05:00:48.889Z,511.00
2022-10-19T05:01:48.689Z,513.00
2022-10-19T05:02:48.789Z,514.00
2022-10-19T05:03:48.747Z,517.00
2022-10-19T05:04:48.751Z,516.00
2022-10-19T05:05:48.633Z,512.00
2022-10-19T05:06:49.689Z,510.00
2022-10-19T05:07:48.620Z,508.00
2022-10-19T05:08:48.748Z,506.00
2022-10-19T05:09:48.580Z,510.00
2022-10-19T05:10:48.699Z,509.00
2022-10-19T05:11:48.552Z,506.00
2022-10-19T05:12:48.670Z,505.00
2022-10-19T05:13:48.531Z,504.00
2022-10-19T05:14:48.722Z,506.00
2022-10-19T05:15:48.513Z,506.00
2022-10-19T05:16:48.641Z,508.00
2022-10-19T05:17:48.480Z,508.00
2022-10-19T05:18:48.574Z,510.00
2022-10-19T05:19:48.470Z,511.00
2022-10-19T05:20:49.591Z,513.00
2022-10-19T05:21:48.420Z,514.00
2022-10-19T05:22:48.540Z,515.00
2022-10-19T05:23:48.421Z,514.00
2022-10-19T05:24:48.580Z,515.00
2022-10-19T05:25:48.372Z,516.00
2022-10-19T05:26:48.461Z,517.00
2022-10-19T05:27:48.371Z,518.00
2022-10-19T05:28:49.522Z,519.00
2022-10-19T05:29:48.310Z,520.00
2022-10-19T05:30:49.139Z,522.00
2022-10-19T05:31:48.291Z,521.00
2022-10-19T05:32:48.473Z,519.00
2022-10-19T05:33:48.251Z,521.00
2022-10-19T05:34:48.351Z,522.00
2022-10-19T05:35:48.231Z,523.00
2022-10-19T05:36:50.388Z,524.00
2022-10-19T05:37:48.201Z,523.00
2022-10-19T05:38:48.391Z,521.00
2022-10-19T05:39:48.190Z,522.00
2022-10-19T05:40:52.901Z,519.00
2022-10-19T05:41:49.150Z,518.00
2022-10-19T05:42:48.312Z,518.00
2022-10-19T05:43:48.119Z,518.00
2022-10-19T05:44:48.182Z,520.00
2022-10-19T05:45:48.092Z,519.00
2022-10-19T05:46:48.172Z,521.00
2022-10-19T05:47:48.071Z,522.00
2022-10-19T05:48:48.210Z,524.00
2022-10-19T05:49:48.042Z,524.00
2022-10-19T05:50:48.201Z,524.00
2022-10-19T05:51:48.011Z,523.00
2022-10-19T05:52:50.272Z,525.00
2022-10-19T05:53:47.992Z,528.00
2022-10-19T05:54:48.017Z,526.00
2022-10-19T05:55:47.952Z,516.00
2022-10-19T05:56:48.091Z,519.00
2022-10-19T05:57:47.931Z,519.00
2022-10-19T05:58:48.081Z,518.00
2022-10-19T05:59:47.911Z,517.00
2022-10-19T06:00:48.021Z,520.00
2022-10-19T06:01:47.891Z,519.00
2022-10-19T06:02:48.941Z,517.00
2022-10-19T06:03:47.851Z,514.00
2022-10-19T06:04:47.991Z,515.00
2022-10-19T06:05:47.821Z,515.00
2022-10-19T06:06:47.931Z,514.00
2022-10-19T06:07:47.803Z,515.00
2022-10-19T06:08:51.191Z,518.00
2022-10-19T06:09:47.783Z,511.00
2022-10-19T06:10:47.913Z,515.00
2022-10-19T06:11:47.754Z,513.00
2022-10-19T06:12:48.852Z,518.00
2022-10-19T06:13:47.713Z,516.00
2022-10-19T06:14:48.845Z,517.00
2022-10-19T06:15:47.682Z,518.00
2022-10-19T06:16:47.793Z,515.00
2022-10-19T06:17:47.673Z,513.00
2022-10-19T06:18:47.846Z,513.00
2022-10-19T06:19:47.639Z,512.00
2022-10-19T06:20:49.932Z,508.00
2022-10-19T06:21:47.611Z,509.00
2022-10-19T06:22:47.701Z,509.00
2022-10-19T06:23:47.585Z,511.00
2022-10-19T06:24:48.671Z,510.00
2022-10-19T06:25:47.554Z,511.00
2022-10-19T06:26:47.732Z,513.00
2022-10-19T06:27:47.545Z,512.00
2022-10-19T06:28:47.726Z,512.00
2022-10-19T06:29:47.492Z,511.00
2022-10-19T06:30:47.678Z,510.00
2022-10-19T06:31:47.483Z,511.00
2022-10-19T06:32:47.684Z,510.00
2022-10-19T06:33:49.444Z,514.00
2022-10-19T06:34:47.522Z,513.00
2022-10-19T06:35:53.338Z,515.00
2022-10-19T06:36:47.403Z,513.00
2022-10-19T06:37:47.534Z,511.00
2022-10-19T06:38:47.410Z,512.00
2022-10-19T06:39:47.478Z,509.00
2022-10-19T06:40:47.353Z,511.00
2022-10-19T06:41:47.505Z,512.00
2022-10-19T06:42:47.324Z,512.00
2022-10-19T06:43:47.413Z,511.00
2022-10-19T06:44:47.323Z,514.00
2022-10-19T06:45:47.328Z,512.00
2022-10-19T06:46:47.303Z,510.00
2022-10-19T06:48:47.253Z,510.00
2022-10-19T06:49:48.371Z,508.00
2022-10-19T06:50:47.230Z,509.00
2022-10-19T06:51:47.307Z,507.00
2022-10-19T06:52:47.195Z,511.00
2022-10-19T06:53:49.717Z,513.00
2022-10-19T06:54:48.154Z,516.00
2022-10-19T06:55:47.193Z,514.00
2022-10-19T06:56:47.494Z,515.00
2022-10-19T06:57:47.215Z,514.00
2022-10-19T06:58:47.122Z,512.00
2022-10-19T06:59:50.117Z,509.00
2022-10-19T07:00:48.202Z,509.00
2022-10-19T07:01:47.172Z,506.00
2022-10-19T07:02:47.085Z,508.00
2022-10-19T07:04:08.193Z,511.00
2022-10-19T07:04:47.026Z,511.00
2022-10-19T07:05:47.067Z,510.00
2022-10-19T07:06:47.000Z,511.00
2022-10-19T07:07:47.123Z,510.00
2022-10-19T07:08:47.014Z,510.00
2022-10-19T07:09:46.993Z,510.00
2022-10-19T07:10:46.946Z,511.00
2022-10-19T07:11:47.008Z,512.00
2022-10-19T07:12:46.915Z,511.00
2022-10-19T07:13:46.984Z,512.00
2022-10-19T07:14:46.924Z,513.00
2022-10-19T07:15:47.042Z,512.00
2022-10-19T07:16:46.865Z,510.00
2022-10-19T07:17:46.953Z,511.00
2022-10-19T07:18:46.836Z,508.00
2022-10-19T07:19:46.952Z,506.00
2022-10-19T07:20:46.903Z,502.00
2022-10-19T07:21:46.882Z,503.00
2022-10-19T07:22:46.915Z,504.00
2022-10-19T07:23:46.896Z,507.00
2022-10-19T07:24:46.753Z,509.00
2022-10-19T07:25:46.903Z,508.00
2022-10-19T07:26:46.766Z,510.00
2022-10-19T07:27:46.891Z,508.00
2022-10-19T07:28:46.836Z,513.00
2022-10-19T07:29:46.726Z,509.00
2022-10-19T07:30:46.685Z,510.00
2022-10-19T07:31:46.792Z,507.00
2022-10-19T07:32:47.148Z,505.00
2022-10-19T07:33:46.724Z,509.00
2022-10-19T07:34:46.677Z,507.00
2022-10-19T07:35:46.665Z,509.00
2022-10-19T07:36:46.595Z,507.00
2022-10-19T07:37:47.318Z,510.00
2022-10-19T07:38:46.595Z,508.00
2022-10-19T07:39:46.656Z,511.00
2022-10-19T07:40:47.568Z,509.00
2022-10-19T07:41:46.615Z,510.00
2022-10-19T07:42:46.496Z,507.00
2022-10-19T07:43:46.526Z,504.00
2022-10-19T07:44:46.516Z,505.00
2022-10-19T07:45:46.557Z,508.00
2022-10-19T07:46:46.463Z,506.00
2022-10-19T07:47:46.564Z,501.00
2022-10-19T07:48:46.438Z,504.00
2022-10-19T07:49:46.537Z,501.00
2022-10-19T07:50:46.435Z,498.00
2022-10-19T07:51:46.565Z,498.00
2022-10-19T07:52:46.386Z,502.00
2022-10-19T07:53:46.388Z,504.00
2022-10-19T07:54:46.357Z,505.00
2022-10-19T07:55:46.407Z,501.00
2022-10-19T07:56:46.354Z,502.00
2022-10-19T07:57:47.129Z,506.00
2022-10-19T07:58:46.313Z,508.00
2022-10-19T07:59:46.337Z,508.00
2022-10-19T08:00:46.290Z,507.00
2022-10-19T08:01:46.495Z,512.00
2022-10-19T08:03:00.116Z,508.00
2022-10-19T08:05:06.147Z,500.00
2022-10-19T08:05:47.197Z,499.00
2022-10-19T08:06:46.276Z,503.00
2022-10-19T08:07:46.230Z,498.00
2022-10-19T08:08:46.422Z,500.00
2022-10-19T08:09:54.336Z,497.00
2022-10-19T08:10:47.143Z,496.00
2022-10-19T08:11:46.249Z,497.00
2022-10-19T08:12:46.118Z,497.00
2022-10-19T08:13:46.159Z,493.00
2022-10-19T08:14:46.097Z,493.00
2022-10-19T08:15:46.196Z,495.00
2022-10-19T08:16:46.088Z,500.00
2022-10-19T08:17:46.157Z,500.00
2022-10-19T08:18:46.039Z,498.00
2022-10-19T08:19:46.066Z,496.00
2022-10-19T08:20:46.037Z,498.00
2022-10-19T08:21:46.079Z,499.00
2022-10-19T08:22:46.009Z,503.00
2022-10-19T08:23:45.996Z,497.00
2022-10-19T08:24:45.950Z,498.00
2022-10-19T08:25:47.099Z,497.00
2022-10-19T08:26:45.957Z,499.00
2022-10-19T08:27:46.123Z,498.00
2022-10-19T08:28:45.888Z,498.00
2022-10-19T08:29:45.939Z,494.00
2022-10-19T08:30:45.870Z,496.00
2022-10-19T08:31:45.949Z,496.00
2022-10-19T08:32:45.859Z,494.00
2022-10-19T08:33:45.868Z,499.00
2022-10-19T08:34:45.808Z,498.00
2022-10-19T08:35:45.879Z,497.00
2022-10-19T08:36:45.796Z,493.00
2022-10-19T08:37:46.784Z,499.00
2022-10-19T08:38:47.913Z,500.00
2022-10-19T08:40:08.725Z,502.00
2022-10-19T08:40:46.786Z,500.00
2022-10-19T08:41:46.515Z,499.00
2022-10-19T08:43:07.277Z,501.00
2022-10-19T08:44:10.140Z,505.00
2022-10-19T08:45:01.280Z,500.00
2022-10-19T08:45:47.029Z,503.00
2022-10-19T08:46:47.038Z,499.00
2022-10-19T08:47:48.075Z,493.00
2022-10-19T08:48:46.403Z,492.00
2022-10-19T08:49:48.172Z,493.00
2022-10-19T08:50:47.682Z,494.00
2022-10-19T08:51:49.045Z,491.00
2022-10-19T08:52:48.816Z,494.00
2022-10-19T08:53:48.036Z,493.00
2022-10-19T08:54:50.026Z,498.00
2022-10-19T08:55:50.506Z,497.00
2022-10-19T08:56:51.583Z,490.00
2022-10-19T08:57:55.946Z,488.00
2022-10-19T08:58:49.903Z,488.00
2022-10-19T08:59:47.405Z,492.00
2022-10-19T09:00:48.415Z,488.00
2022-10-19T09:01:50.661Z,492.00
2022-10-19T09:02:48.641Z,491.00
2022-10-19T09:03:55.834Z,494.00
2022-10-19T09:04:47.269Z,492.00
2022-10-19T09:05:47.335Z,496.00
2022-10-19T09:06:51.102Z,492.00
2022-10-19T09:07:47.482Z,498.00
2022-10-19T09:08:47.456Z,496.00
2022-10-19T09:10:45.876Z,493.00
2022-10-19T09:11:47.309Z,502.00
2022-10-19T09:12:46.282Z,502.00
2022-10-19T09:14:04.189Z,501.00
2022-10-19T09:14:46.271Z,497.00
2022-10-19T09:15:46.147Z,502.00
2022-10-19T09:16:45.261Z,499.00
2022-10-19T09:17:47.033Z,493.00
2022-10-19T09:18:46.310Z,496.00
2022-10-19T09:19:45.333Z,497.00
2022-10-19T09:20:45.188Z,497.00
2022-10-19T09:21:47.647Z,493.00
2022-10-19T09:22:45.161Z,495.00
2022-10-19T09:23:45.264Z,490.00
2022-10-19T09:24:45.155Z,493.00
2022-10-19T09:25:45.165Z,489.00
2022-10-19T09:26:45.205Z,486.00
2022-10-19T09:28:06.163Z,479.00
2022-10-19T09:28:45.081Z,481.00
2022-10-19T09:30:06.132Z,490.00
2022-10-19T09:30:45.045Z,482.00
2022-10-19T09:31:45.161Z,481.00
2022-10-19T09:32:45.029Z,487.00
2022-10-19T09:33:45.073Z,491.00
2022-10-19T09:34:44.994Z,488.00
2022-10-19T09:35:45.083Z,489.00
2022-10-19T09:36:51.991Z,486.00
2022-10-19T09:37:45.981Z,490.00
2022-10-19T09:38:45.004Z,493.00
2022-10-19T09:39:52.336Z,491.00
2022-10-19T09:40:45.911Z,494.00
2022-10-19T09:41:44.925Z,490.00
2022-10-19T09:42:44.891Z,487.00
2022-10-19T09:43:44.994Z,495.00
2022-10-19T09:44:44.862Z,480.00
2022-10-19T09:45:44.951Z,487.00
2022-10-19T09:47:44.886Z,485.00
2022-10-19T09:48:44.815Z,483.00
2022-10-19T09:49:44.978Z,490.00
2022-10-19T09:50:44.783Z,490.00
2022-10-19T09:51:44.792Z,496.00
2022-10-19T09:52:44.758Z,492.00
2022-10-19T09:53:44.805Z,484.00
2022-10-19T09:54:44.726Z,493.00
2022-10-19T09:55:44.796Z,492.00
2022-10-19T09:56:44.706Z,493.00
2022-10-19T09:57:44.739Z,499.00
2022-10-19T09:58:44.675Z,493.00
2022-10-19T09:59:46.795Z,496.00
2022-10-19T10:00:44.655Z,494.00
2022-10-19T10:01:44.898Z,494.00
2022-10-19T10:03:44.678Z,500.00
2022-10-19T10:04:44.602Z,502.00
2022-10-19T10:05:44.687Z,491.00
2022-10-19T10:06:44.555Z,488.00
2022-10-19T10:07:44.655Z,494.00
2022-10-19T10:08:44.578Z,495.00
2022-10-19T10:09:44.637Z,492.00
2022-10-19T10:10:44.505Z,487.00
2022-10-19T10:11:44.642Z,490.00
2022-10-19T10:12:44.486Z,487.00
2022-10-19T10:13:44.697Z,489.00
2022-10-19T10:14:44.456Z,495.00
2022-10-19T10:15:44.557Z,491.00
2022-10-19T10:16:44.427Z,484.00
2022-10-19T10:17:44.472Z,483.00
2022-10-19T10:18:44.406Z,486.00
2022-10-19T10:19:44.447Z,487.00
2022-10-19T10:20:44.377Z,490.00
2022-10-19T10:21:44.398Z,488.00
2022-10-19T10:22:44.346Z,491.00
2022-10-19T10:23:45.448Z,491.00
2022-10-19T10:24:44.325Z,492.00
2022-10-19T10:25:44.379Z,492.00
2022-10-19T10:26:44.300Z,493.00
2022-10-19T10:27:44.339Z,492.00
2022-10-19T10:28:44.268Z,491.00
2022-10-19T10:29:44.392Z,493.00
2022-10-19T10:30:44.240Z,492.00
2022-10-19T10:31:44.318Z,493.00
2022-10-19T10:32:47.235Z,498.00
2022-10-19T10:33:45.318Z,497.00
2022-10-19T10:34:54.884Z,486.00
2022-10-19T10:35:45.175Z,490.00
2022-10-19T10:36:45.219Z,494.00
2022-10-19T10:37:44.181Z,493.00
2022-10-19T10:38:44.246Z,491.00
2022-10-19T10:39:44.119Z,495.00
2022-10-19T10:40:45.087Z,495.00
2022-10-19T10:41:44.090Z,493.00
2022-10-19T10:42:44.210Z,493.00
2022-10-19T10:43:44.131Z,494.00
2022-10-19T10:44:45.081Z,494.00
2022-10-19T10:45:44.040Z,494.00
2022-10-19T10:46:44.065Z,494.00
2022-10-19T10:47:44.008Z,491.00
2022-10-19T10:48:44.112Z,488.00
2022-10-19T10:49:44.010Z,489.00
2022-10-19T10:50:43.993Z,490.00
2022-10-19T10:51:43.971Z,490.00
2022-10-19T10:52:44.080Z,495.00
2022-10-19T10:53:43.942Z,492.00
2022-10-19T10:54:44.120Z,493.00
2022-10-19T10:55:43.946Z,498.00
2022-10-19T10:56:43.946Z,493.00
2022-10-19T10:57:43.879Z,495.00
2022-10-19T10:58:43.949Z,513.00
2022-10-19T10:59:45.646Z,493.00
2022-10-19T11:00:43.861Z,498.00
2022-10-19T11:01:43.970Z,496.00
2022-10-19T11:02:43.874Z,493.00
2022-10-19T11:03:43.792Z,491.00
2022-10-19T11:04:46.369Z,491.00
2022-10-19T11:05:43.779Z,491.00
2022-10-19T11:06:45.892Z,491.00
2022-10-19T11:07:43.762Z,493.00
2022-10-19T11:08:43.863Z,499.00
2022-10-19T11:09:43.714Z,503.00
2022-10-19T11:10:43.730Z,496.00
2022-10-19T11:11:43.683Z,492.00
2022-10-19T11:12:43.741Z,498.00
2022-10-19T11:13:43.672Z,495.00
2022-10-19T11:14:43.761Z,496.00
2022-10-19T11:15:43.630Z,497.00
2022-10-19T11:16:43.755Z,496.00
2022-10-19T11:17:43.603Z,494.00
2022-10-19T11:18:45.672Z,495.00
2022-10-19T11:19:43.593Z,495.00
2022-10-19T11:20:43.593Z,493.00
2022-10-19T11:21:43.543Z,494.00
2022-10-19T11:22:43.604Z,500.00
2022-10-19T11:23:43.523Z,498.00
2022-10-19T11:24:46.382Z,498.00
2022-10-19T11:25:44.513Z,493.00
2022-10-19T11:26:43.533Z,492.00
2022-10-19T11:27:43.455Z,496.00
2022-10-19T11:28:43.634Z,494.00
2022-10-19T11:29:43.442Z,491.00
2022-10-19T11:30:45.334Z,492.00
2022-10-19T11:31:43.438Z,495.00
2022-10-19T11:33:04.465Z,493.00
2022-10-19T11:34:43.387Z,492.00
2022-10-19T11:35:43.354Z,492.00
2022-10-19T11:36:43.404Z,493.00
2022-10-19T11:37:49.713Z,493.00
2022-10-19T11:38:44.325Z,492.00
2022-10-19T11:39:43.324Z,490.00
2022-10-19T11:40:54.251Z,492.00
2022-10-19T11:41:44.278Z,494.00
2022-10-19T11:42:43.303Z,493.00
2022-10-19T11:43:43.383Z,489.00
2022-10-19T11:44:43.235Z,487.00
2022-10-19T11:45:43.374Z,490.00
2022-10-19T11:46:43.219Z,487.00
2022-10-19T11:47:44.325Z,490.00
2022-10-19T11:48:43.951Z,492.00
2022-10-19T11:49:43.243Z,491.00
2022-10-19T11:50:46.658Z,490.00
2022-10-19T11:51:44.155Z,490.00
2022-10-19T11:52:43.236Z,489.00
2022-10-19T11:53:43.126Z,491.00
2022-10-19T11:54:43.126Z,489.00
2022-10-19T11:55:43.128Z,497.00
2022-10-19T11:57:01.537Z,493.00
2022-10-19T11:57:44.078Z,489.00
2022-10-19T11:58:43.171Z,492.00
2022-10-19T11:59:43.048Z,495.00
2022-10-19T12:00:43.068Z,496.00
2022-10-19T12:01:43.100Z,496.00
2022-10-19T12:02:43.079Z,501.00
2022-10-19T12:03:42.987Z,497.00
2022-10-19T12:04:45.159Z,494.00
2022-10-19T12:05:42.960Z,495.00
2022-10-19T12:06:43.080Z,491.00
2022-10-19T12:07:42.958Z,489.00
2022-10-19T12:08:43.074Z,491.00
2022-10-19T12:09:42.909Z,489.00
2022-10-19T12:10:42.950Z,489.00
2022-10-19T12:11:42.879Z,490.00
2022-10-19T12:12:42.950Z,488.00
2022-10-19T12:13:42.887Z,492.00
2022-10-19T12:14:42.939Z,492.00
2022-10-19T12:15:42.848Z,496.00
2022-10-19T12:17:52.307Z,554.00
2022-10-19T12:18:52.158Z,494.00
2022-10-19T12:19:52.240Z,495.00
2022-10-19T12:20:52.107Z,493.00
2022-10-19T12:21:53.158Z,493.00
2022-10-19T12:22:52.079Z,496.00
2022-10-19T12:23:53.168Z,496.00
2022-10-19T12:24:52.096Z,494.00
2022-10-19T12:25:52.057Z,492.00
2022-10-19T12:26:52.030Z,491.00
2022-10-19T12:27:52.071Z,489.00
2022-10-19T12:28:52.000Z,504.00
2022-10-19T12:29:52.087Z,489.00
2022-10-19T12:30:52.000Z,487.00
2022-10-19T12:31:52.091Z,487.00
2022-10-19T12:32:54.222Z,487.00
2022-10-19T12:33:52.020Z,492.00
2022-10-19T12:34:51.920Z,491.00
2022-10-19T12:35:52.950Z,487.00
2022-10-19T12:36:51.913Z,485.00